Nickajack Observed Data For Previous 48 Hours

Caption
Day and Hour Reservoir Elevation (behind dam)* Tailwater Elevation (below dam)* Average Hourly Discharge*
4/17/2018 1 AM CDT 634.22 596.36 11,971
4/17/2018 2 AM CDT 634.25 596.25 11,938
4/17/2018 3 AM CDT 634.22 596.21 11,998
4/17/2018 4 AM CDT 634.23 596.23 12,433
4/17/2018 5 AM CDT 634.03 597.21 31,210
4/17/2018 6 AM CDT 633.92 597.97 40,748
4/17/2018 7 AM CDT 633.96 598.30 40,853
4/17/2018 8 AM CDT 633.90 598.49 40,787
4/17/2018 9 AM CDT 633.87 598.57 40,886
4/17/2018 10 AM CDT 634.02 598.10 31,262
4/17/2018 11 AM CDT 634.10 598.08 30,998
4/17/2018 12 PM CDT 634.18 597.90 30,661
4/17/2018 1 PM CDT 634.26 597.81 30,956
4/17/2018 2 PM CDT 634.16 597.85 31,396
4/17/2018 3 PM CDT 633.96 597.80 30,953
4/17/2018 4 PM CDT 633.80 597.96 32,412
4/17/2018 5 PM CDT 633.58 597.99 32,425
4/17/2018 6 PM CDT 633.48 598.02 32,156
4/17/2018 7 PM CDT 633.38 597.99 32,332
4/17/2018 8 PM CDT 633.23 598.01 32,175
4/17/2018 9 PM CDT 633.26 597.93 31,556
4/17/2018 10 PM CDT 633.42 597.04 15,985
4/17/2018 11 PM CDT 633.30 596.73 15,817
4/18/2018 12 AM CDT 633.23 596.56 15,862
4/18/2018 1 AM CDT 633.19 596.46 15,792
4/18/2018 2 AM CDT 633.13 596.41 15,803
4/18/2018 3 AM CDT 633.12 596.37 15,871
4/18/2018 4 AM CDT 633.07 596.35 15,908
4/18/2018 5 AM CDT 632.93 596.39 16,171
4/18/2018 6 AM CDT 632.82 597.31 32,214
4/18/2018 7 AM CDT 632.60 597.60 33,130
4/18/2018 8 AM CDT 632.67 596.81 18,849
4/18/2018 9 AM CDT 632.81 596.61 15,705
4/18/2018 10 AM CDT 632.86 596.49 15,714
4/18/2018 11 AM CDT 633.06 596.52 15,828
4/18/2018 12 PM CDT 633.20 596.55 16,077
4/18/2018 1 PM CDT 633.39 596.60 15,794
4/18/2018 2 PM CDT 633.61 596.56 15,779
4/18/2018 3 PM CDT 633.87 596.55 15,767
4/18/2018 4 PM CDT 633.98 596.49 15,858
4/18/2018 5 PM CDT 633.96 597.26 29,552
4/18/2018 6 PM CDT 633.85 597.49 31,243
4/18/2018 7 PM CDT 633.96 598.10 41,211
4/18/2018 8 PM CDT 633.97 598.27 41,189
4/18/2018 9 PM CDT 634.07 598.35 41,137
4/18/2018 10 PM CDT 634.10 598.40 41,196
4/18/2018 11 PM CDT 634.10 597.88 30,951
4/19/2018 12 AM CDT 634.08 597.66 31,070
4/19/2018 1 AM CDT 634.17 596.64 12,216
4/19/2018 2 AM CDT 634.13 596.27 12,016
4/19/2018 3 AM CDT 634.12 596.02 12,066
4/19/2018 4 AM CDT 634.04 595.86 12,069
4/19/2018 5 AM CDT 633.92 595.83 12,562
4/19/2018 6 AM CDT 633.69 596.76 31,543

Elevations are in feet above sea level. Discharges are in cubic feet per second and are reported at the end of the hour.